AWO weather

Arlington Municipal Airport
Arlington, Washington, United States

Public forecast

Using degrees Fahrenheit for public forecast. Weather courtesy of forecast.io.

Current aviation weather report (METAR) for Arlington Municipal Airport

Retrieved 2019/12/06 11:56 UTC (51 minutes ago):

KAWO 061156Z AUTO 00000KT 9SM BKN080 OVC100 05/05 A2994 RMK AO2 RAB10E41 SLP142 6//// 7//// T00500050 10056 20044 58014 PNO

Closest aviation forecast (TAF) to Arlington Municipal Airport

Closest forecast is Snohomish County (Paine Field) Airport, 16.1 nm (29.7 km) SSW. Retrieved 2019/12/06 12:28 UTC (19 minutes ago):

TAF KPAE 061126Z 0612/0712 05005KT P6SM SCT050 OVC070 TEMPO 0612/0616 1SM BR BKN001 FM061800 14006KT P6SM BKN050 OVC070 FM062000 14006KT P6SM OVC050 FM070100 16006KT P6SM -RA BKN020 OVC035